sensor_id;sensor_type;location;lat;lon;timestamp;P1;durP1;ratioP1;P2;durP2;ratioP2
75189;SDS011;69198;44.694;37.790;2023-08-01T00:00:18;11.32;;;5.97;;
75189;SDS011;69198;44.694;37.790;2023-08-01T00:01:20;11.13;;;5.97;;
75189;SDS011;69198;44.694;37.790;2023-08-01T00:02:21;9.43;;;5.45;;
75189;SDS011;69198;44.694;37.790;2023-08-01T00:03:22;9.35;;;5.50;;
75189;SDS011;69198;44.694;37.790;2023-08-01T00:04:23;10.50;;;5.68;;
75189;SDS011;69198;44.694;37.790;2023-08-01T00:05:24;17.60;;;5.18;;
75189;SDS011;69198;44.694;37.790;2023-08-01T00:06:25;12.13;;;5.35;;
75189;SDS011;69198;44.694;37.790;2023-08-01T00:07:27;10.27;;;5.20;;
75189;SDS011;69198;44.694;37.790;2023-08-01T00:08:28;14.15;;;5.55;;
75189;SDS011;69198;44.694;37.790;2023-08-01T00:09:29;9.68;;;5.05;;
75189;SDS011;69198;44.694;37.790;2023-08-01T00:10:30;11.75;;;5.20;;
75189;SDS011;69198;44.694;37.790;2023-08-01T00:11:31;9.60;;;5.25;;
75189;SDS011;69198;44.694;37.790;2023-08-01T00:12:32;9.02;;;5.00;;
75189;SDS011;69198;44.694;37.790;2023-08-01T00:13:34;12.43;;;5.38;;
75189;SDS011;69198;44.694;37.790;2023-08-01T00:14:35;9.00;;;4.75;;
75189;SDS011;69198;44.694;37.790;2023-08-01T00:15:37;10.60;;;5.28;;
75189;SDS011;69198;44.694;37.790;2023-08-01T00:16:38;9.80;;;5.20;;
75189;SDS011;69198;44.694;37.790;2023-08-01T00:17:39;9.45;;;5.20;;
75189;SDS011;69198;44.694;37.790;2023-08-01T00:18:40;10.05;;;5.20;;
75189;SDS011;69198;44.694;37.790;2023-08-01T00:19:41;11.50;;;4.75;;
75189;SDS011;69198;44.694;37.790;2023-08-01T00:20:42;9.95;;;5.40;;
75189;SDS011;69198;44.694;37.790;2023-08-01T00:21:43;9.70;;;5.40;;
75189;SDS011;69198;44.694;37.790;2023-08-01T00:22:44;9.98;;;5.15;;
75189;SDS011;69198;44.694;37.790;2023-08-01T00:23:45;10.35;;;5.28;;
75189;SDS011;69198;44.694;37.790;2023-08-01T00:24:46;10.00;;;4.90;;
75189;SDS011;69198;44.694;37.790;2023-08-01T00:25:50;9.18;;;5.15;;
75189;SDS011;69198;44.694;37.790;2023-08-01T00:26:52;8.73;;;5.32;;
75189;SDS011;69198;44.694;37.790;2023-08-01T00:27:56;10.20;;;4.70;;
75189;SDS011;69198;44.694;37.790;2023-08-01T00:28:57;9.35;;;4.72;;
75189;SDS011;69198;44.694;37.790;2023-08-01T00:29:58;9.15;;;4.80;;
75189;SDS011;69198;44.694;37.790;2023-08-01T00:31:02;9.13;;;5.30;;
75189;SDS011;69198;44.694;37.790;2023-08-01T00:32:04;9.68;;;5.13;;
75189;SDS011;69198;44.694;37.790;2023-08-01T00:33:05;9.20;;;5.07;;
75189;SDS011;69198;44.694;37.790;2023-08-01T00:34:07;8.82;;;4.97;;
75189;SDS011;69198;44.694;37.790;2023-08-01T00:35:08;11.35;;;5.10;;
75189;SDS011;69198;44.694;37.790;2023-08-01T00:36:09;11.23;;;4.82;;
75189;SDS011;69198;44.694;37.790;2023-08-01T00:37:12;9.73;;;5.38;;
75189;SDS011;69198;44.694;37.790;2023-08-01T00:38:13;12.20;;;5.32;;
75189;SDS011;69198;44.694;37.790;2023-08-01T00:39:14;9.43;;;5.13;;
75189;SDS011;69198;44.694;37.790;2023-08-01T00:40:15;9.93;;;4.97;;
75189;SDS011;69198;44.694;37.790;2023-08-01T00:41:17;9.98;;;5.20;;
75189;SDS011;69198;44.694;37.790;2023-08-01T00:42:18;10.27;;;5.90;;
75189;SDS011;69198;44.694;37.790;2023-08-01T00:43:20;12.40;;;5.15;;
75189;SDS011;69198;44.694;37.790;2023-08-01T00:44:21;8.75;;;5.10;;
75189;SDS011;69198;44.694;37.790;2023-08-01T00:45:23;9.57;;;4.90;;
75189;SDS011;69198;44.694;37.790;2023-08-01T00:46:26;9.75;;;5.47;;
75189;SDS011;69198;44.694;37.790;2023-08-01T00:47:27;11.98;;;5.55;;
75189;SDS011;69198;44.694;37.790;2023-08-01T00:48:29;11.63;;;5.40;;
75189;SDS011;69198;44.694;37.790;2023-08-01T00:49:31;9.93;;;5.47;;
75189;SDS011;69198;44.694;37.790;2023-08-01T00:50:33;11.73;;;6.18;;
75189;SDS011;69198;44.694;37.790;2023-08-01T00:51:34;12.55;;;5.97;;
75189;SDS011;69198;44.694;37.790;2023-08-01T00:52:36;10.40;;;5.73;;
75189;SDS011;69198;44.694;37.790;2023-08-01T00:53:37;11.63;;;5.50;;
75189;SDS011;69198;44.694;37.790;2023-08-01T00:54:38;10.23;;;5.80;;
75189;SDS011;69198;44.694;37.790;2023-08-01T00:55:39;9.15;;;5.20;;
75189;SDS011;69198;44.694;37.790;2023-08-01T00:56:40;8.95;;;5.35;;
75189;SDS011;69198;44.694;37.790;2023-08-01T00:57:42;9.90;;;5.32;;
75189;SDS011;69198;44.694;37.790;2023-08-01T00:58:43;9.80;;;5.45;;
75189;SDS011;69198;44.694;37.790;2023-08-01T00:59:44;9.80;;;5.13;;
75189;SDS011;69198;44.694;37.790;2023-08-01T01:00:46;8.82;;;5.40;;
75189;SDS011;69198;44.694;37.790;2023-08-01T01:01:48;9.95;;;4.88;;
75189;SDS011;69198;44.694;37.790;2023-08-01T01:02:49;9.87;;;5.70;;
75189;SDS011;69198;44.694;37.790;2023-08-01T01:03:50;12.63;;;5.53;;
75189;SDS011;69198;44.694;37.790;2023-08-01T01:04:51;11.65;;;5.40;;
75189;SDS011;69198;44.694;37.790;2023-08-01T01:05:53;11.75;;;5.47;;
75189;SDS011;69198;44.694;37.790;2023-08-01T01:07:02;9.45;;;5.63;;
75189;SDS011;69198;44.694;37.790;2023-08-01T01:08:06;10.30;;;6.25;;
75189;SDS011;69198;44.694;37.790;2023-08-01T01:09:14;12.50;;;6.30;;
75189;SDS011;69198;44.694;37.790;2023-08-01T01:10:19;12.38;;;6.82;;
75189;SDS011;69198;44.694;37.790;2023-08-01T01:11:20;10.90;;;6.40;;
75189;SDS011;69198;44.694;37.790;2023-08-01T01:12:21;11.05;;;6.60;;
75189;SDS011;69198;44.694;37.790;2023-08-01T01:13:22;11.97;;;6.83;;
75189;SDS011;69198;44.694;37.790;2023-08-01T01:14:23;10.02;;;6.50;;
75189;SDS011;69198;44.694;37.790;2023-08-01T01:15:26;10.07;;;6.03;;
75189;SDS011;69198;44.694;37.790;2023-08-01T01:16:27;12.02;;;5.95;;
75189;SDS011;69198;44.694;37.790;2023-08-01T01:17:28;12.40;;;6.32;;
75189;SDS011;69198;44.694;37.790;2023-08-01T01:18:28;10.82;;;6.35;;
75189;SDS011;69198;44.694;37.790;2023-08-01T01:19:29;12.68;;;6.82;;
75189;SDS011;69198;44.694;37.790;2023-08-01T01:20:34;10.80;;;6.20;;
75189;SDS011;69198;44.694;37.790;2023-08-01T01:21:37;12.05;;;6.00;;
75189;SDS011;69198;44.694;37.790;2023-08-01T01:22:40;12.00;;;6.57;;
75189;SDS011;69198;44.694;37.790;2023-08-01T01:23:42;11.38;;;5.68;;
75189;SDS011;69198;44.694;37.790;2023-08-01T01:24:43;10.45;;;5.60;;
75189;SDS011;69198;44.694;37.790;2023-08-01T01:25:46;10.07;;;6.22;;
75189;SDS011;69198;44.694;37.790;2023-08-01T01:26:48;13.57;;;6.40;;
75189;SDS011;69198;44.694;37.790;2023-08-01T01:27:51;11.23;;;6.18;;
75189;SDS011;69198;44.694;37.790;2023-08-01T01:28:53;13.75;;;6.38;;
75189;SDS011;69198;44.694;37.790;2023-08-01T01:29:55;12.75;;;5.60;;
75189;SDS011;69198;44.694;37.790;2023-08-01T01:30:56;10.30;;;4.73;;
75189;SDS011;69198;44.694;37.790;2023-08-01T01:31:58;14.13;;;5.50;;
75189;SDS011;69198;44.694;37.790;2023-08-01T01:33:00;10.25;;;5.60;;
75189;SDS011;69198;44.694;37.790;2023-08-01T01:34:02;12.30;;;6.30;;
75189;SDS011;69198;44.694;37.790;2023-08-01T01:35:04;10.98;;;5.93;;
75189;SDS011;69198;44.694;37.790;2023-08-01T01:36:05;13.30;;;6.00;;
75189;SDS011;69198;44.694;37.790;2023-08-01T01:37:06;10.35;;;6.05;;
75189;SDS011;69198;44.694;37.790;2023-08-01T01:38:07;9.88;;;5.82;;
75189;SDS011;69198;44.694;37.790;2023-08-01T01:39:08;13.02;;;5.65;;
75189;SDS011;69198;44.694;37.790;2023-08-01T01:40:09;10.80;;;5.65;;
75189;SDS011;69198;44.694;37.790;2023-08-01T01:41:11;14.10;;;5.80;;
75189;SDS011;69198;44.694;37.790;2023-08-01T01:42:12;9.60;;;5.55;;
75189;SDS011;69198;44.694;37.790;2023-08-01T01:43:13;12.55;;;5.30;;
75189;SDS011;69198;44.694;37.790;2023-08-01T01:44:14;8.77;;;5.07;;
75189;SDS011;69198;44.694;37.790;2023-08-01T01:45:15;13.48;;;5.47;;
75189;SDS011;69198;44.694;37.790;2023-08-01T01:46:16;10.43;;;5.20;;
75189;SDS011;69198;44.694;37.790;2023-08-01T01:47:17;9.80;;;5.57;;
75189;SDS011;69198;44.694;37.790;2023-08-01T01:48:18;10.45;;;5.57;;
75189;SDS011;69198;44.694;37.790;2023-08-01T01:49:19;11.10;;;5.45;;
75189;SDS011;69198;44.694;37.790;2023-08-01T01:50:20;10.93;;;4.83;;
75189;SDS011;69198;44.694;37.790;2023-08-01T01:51:21;7.57;;;4.70;;
75189;SDS011;69198;44.694;37.790;2023-08-01T01:52:22;8.00;;;4.75;;
75189;SDS011;69198;44.694;37.790;2023-08-01T01:53:23;10.43;;;5.13;;
75189;SDS011;69198;44.694;37.790;2023-08-01T01:54:24;9.60;;;4.47;;
75189;SDS011;69198;44.694;37.790;2023-08-01T01:55:26;8.40;;;4.43;;
75189;SDS011;69198;44.694;37.790;2023-08-01T01:56:27;8.40;;;4.35;;
75189;SDS011;69198;44.694;37.790;2023-08-01T01:57:30;8.63;;;4.78;;
75189;SDS011;69198;44.694;37.790;2023-08-01T01:58:31;7.57;;;4.22;;
75189;SDS011;69198;44.694;37.790;2023-08-01T01:59:32;9.38;;;4.70;;
75189;SDS011;69198;44.694;37.790;2023-08-01T02:00:33;8.57;;;4.60;;
75189;SDS011;69198;44.694;37.790;2023-08-01T02:01:34;8.32;;;4.32;;
75189;SDS011;69198;44.694;37.790;2023-08-01T02:02:35;7.95;;;4.38;;
75189;SDS011;69198;44.694;37.790;2023-08-01T02:03:37;8.35;;;4.47;;
75189;SDS011;69198;44.694;37.790;2023-08-01T02:04:38;8.20;;;4.40;;
75189;SDS011;69198;44.694;37.790;2023-08-01T02:05:39;7.40;;;4.20;;
75189;SDS011;69198;44.694;37.790;2023-08-01T02:06:41;7.95;;;4.18;;
75189;SDS011;69198;44.694;37.790;2023-08-01T02:07:42;9.68;;;4.43;;
75189;SDS011;69198;44.694;37.790;2023-08-01T02:08:43;9.53;;;4.63;;
75189;SDS011;69198;44.694;37.790;2023-08-01T02:09:44;8.30;;;4.80;;
75189;SDS011;69198;44.694;37.790;2023-08-01T02:10:47;8.77;;;4.72;;
75189;SDS011;69198;44.694;37.790;2023-08-01T02:11:49;8.30;;;4.68;;
75189;SDS011;69198;44.694;37.790;2023-08-01T02:12:50;9.05;;;4.88;;
75189;SDS011;69198;44.694;37.790;2023-08-01T02:13:51;8.40;;;4.63;;
75189;SDS011;69198;44.694;37.790;2023-08-01T02:14:52;8.35;;;4.70;;
75189;SDS011;69198;44.694;37.790;2023-08-01T02:15:53;9.30;;;4.60;;
75189;SDS011;69198;44.694;37.790;2023-08-01T02:16:54;8.25;;;4.30;;
75189;SDS011;69198;44.694;37.790;2023-08-01T02:17:56;8.18;;;4.30;;
75189;SDS011;69198;44.694;37.790;2023-08-01T02:18:57;8.40;;;4.10;;
75189;SDS011;69198;44.694;37.790;2023-08-01T02:19:58;7.25;;;4.38;;
75189;SDS011;69198;44.694;37.790;2023-08-01T02:20:59;7.38;;;4.03;;
75189;SDS011;69198;44.694;37.790;2023-08-01T02:22:00;7.40;;;3.92;;
75189;SDS011;69198;44.694;37.790;2023-08-01T02:23:01;7.93;;;3.88;;
75189;SDS011;69198;44.694;37.790;2023-08-01T02:24:02;8.88;;;4.28;;
75189;SDS011;69198;44.694;37.790;2023-08-01T02:25:04;9.18;;;4.10;;
75189;SDS011;69198;44.694;37.790;2023-08-01T02:26:05;10.67;;;4.17;;
75189;SDS011;69198;44.694;37.790;2023-08-01T02:27:08;8.05;;;3.83;;
75189;SDS011;69198;44.694;37.790;2023-08-01T02:28:09;7.40;;;3.92;;
75189;SDS011;69198;44.694;37.790;2023-08-01T02:29:10;9.15;;;4.07;;
75189;SDS011;69198;44.694;37.790;2023-08-01T02:30:11;8.43;;;3.78;;
75189;SDS011;69198;44.694;37.790;2023-08-01T02:31:12;8.27;;;4.22;;
75189;SDS011;69198;44.694;37.790;2023-08-01T02:32:13;8.82;;;4.22;;
75189;SDS011;69198;44.694;37.790;2023-08-01T02:33:14;8.95;;;4.75;;
75189;SDS011;69198;44.694;37.790;2023-08-01T02:34:15;8.27;;;4.37;;
75189;SDS011;69198;44.694;37.790;2023-08-01T02:35:16;8.27;;;4.25;;
75189;SDS011;69198;44.694;37.790;2023-08-01T02:36:17;8.80;;;4.15;;
75189;SDS011;69198;44.694;37.790;2023-08-01T02:37:19;9.18;;;4.35;;
75189;SDS011;69198;44.694;37.790;2023-08-01T02:38:20;7.97;;;4.00;;
75189;SDS011;69198;44.694;37.790;2023-08-01T02:39:21;7.00;;;4.00;;
75189;SDS011;69198;44.694;37.790;2023-08-01T02:40:22;8.70;;;4.40;;
75189;SDS011;69198;44.694;37.790;2023-08-01T02:41:23;8.75;;;4.35;;
75189;SDS011;69198;44.694;37.790;2023-08-01T02:42:24;7.73;;;4.43;;
75189;SDS011;69198;44.694;37.790;2023-08-01T02:43:25;7.88;;;4.03;;
75189;SDS011;69198;44.694;37.790;2023-08-01T02:44:26;10.73;;;4.75;;
75189;SDS011;69198;44.694;37.790;2023-08-01T02:45:30;8.85;;;4.25;;
75189;SDS011;69198;44.694;37.790;2023-08-01T02:46:30;8.80;;;4.30;;
75189;SDS011;69198;44.694;37.790;2023-08-01T02:47:32;9.23;;;4.35;;
75189;SDS011;69198;44.694;37.790;2023-08-01T02:48:32;9.23;;;4.25;;
75189;SDS011;69198;44.694;37.790;2023-08-01T02:49:35;7.82;;;3.92;;
75189;SDS011;69198;44.694;37.790;2023-08-01T02:50:36;8.18;;;4.13;;
75189;SDS011;69198;44.694;37.790;2023-08-01T02:51:37;7.40;;;3.50;;
75189;SDS011;69198;44.694;37.790;2023-08-01T02:52:38;8.95;;;3.80;;
75189;SDS011;69198;44.694;37.790;2023-08-01T02:53:39;8.00;;;3.63;;
75189;SDS011;69198;44.694;37.790;2023-08-01T02:54:41;7.78;;;3.50;;
75189;SDS011;69198;44.694;37.790;2023-08-01T02:55:43;7.18;;;3.60;;
75189;SDS011;69198;44.694;37.790;2023-08-01T02:56:46;8.75;;;3.80;;
75189;SDS011;69198;44.694;37.790;2023-08-01T02:57:47;8.93;;;3.70;;
75189;SDS011;69198;44.694;37.790;2023-08-01T02:58:48;7.13;;;3.58;;
75189;SDS011;69198;44.694;37.790;2023-08-01T02:59:50;8.30;;;3.75;;
75189;SDS011;69198;44.694;37.790;2023-08-01T03:00:51;8.18;;;3.67;;
75189;SDS011;69198;44.694;37.790;2023-08-01T03:01:52;7.13;;;3.55;;
75189;SDS011;69198;44.694;37.790;2023-08-01T03:02:53;7.70;;;3.90;;
75189;SDS011;69198;44.694;37.790;2023-08-01T03:03:55;8.70;;;3.90;;
75189;SDS011;69198;44.694;37.790;2023-08-01T03:04:55;9.43;;;4.30;;
75189;SDS011;69198;44.694;37.790;2023-08-01T03:05:57;7.95;;;4.22;;
75189;SDS011;69198;44.694;37.790;2023-08-01T03:06:59;9.32;;;4.28;;
75189;SDS011;69198;44.694;37.790;2023-08-01T03:08:00;7.70;;;4.10;;
75189;SDS011;69198;44.694;37.790;2023-08-01T03:09:01;9.18;;;4.05;;
75189;SDS011;69198;44.694;37.790;2023-08-01T03:10:02;7.65;;;4.13;;
75189;SDS011;69198;44.694;37.790;2023-08-01T03:11:04;7.88;;;4.20;;
75189;SDS011;69198;44.694;37.790;2023-08-01T03:12:05;7.63;;;3.90;;
75189;SDS011;69198;44.694;37.790;2023-08-01T03:13:07;7.28;;;3.67;;
75189;SDS011;69198;44.694;37.790;2023-08-01T03:14:08;6.85;;;3.60;;
75189;SDS011;69198;44.694;37.790;2023-08-01T03:15:09;7.32;;;3.60;;
75189;SDS011;69198;44.694;37.790;2023-08-01T03:16:10;8.77;;;3.63;;
75189;SDS011;69198;44.694;37.790;2023-08-01T03:17:11;7.82;;;3.85;;
75189;SDS011;69198;44.694;37.790;2023-08-01T03:18:12;8.00;;;3.70;;
75189;SDS011;69198;44.694;37.790;2023-08-01T03:19:13;8.52;;;3.88;;
75189;SDS011;69198;44.694;37.790;2023-08-01T03:20:14;7.80;;;3.97;;
75189;SDS011;69198;44.694;37.790;2023-08-01T03:21:15;9.13;;;4.30;;
75189;SDS011;69198;44.694;37.790;2023-08-01T03:22:16;8.15;;;4.05;;
75189;SDS011;69198;44.694;37.790;2023-08-01T03:23:18;8.85;;;4.20;;
75189;SDS011;69198;44.694;37.790;2023-08-01T03:24:19;9.55;;;5.03;;
75189;SDS011;69198;44.694;37.790;2023-08-01T03:25:20;8.73;;;4.70;;
75189;SDS011;69198;44.694;37.790;2023-08-01T03:26:21;8.88;;;5.22;;
75189;SDS011;69198;44.694;37.790;2023-08-01T03:27:22;8.48;;;5.13;;
75189;SDS011;69198;44.694;37.790;2023-08-01T03:28:26;7.97;;;5.28;;
75189;SDS011;69198;44.694;37.790;2023-08-01T03:29:27;10.10;;;4.97;;
75189;SDS011;69198;44.694;37.790;2023-08-01T03:30:28;9.85;;;4.95;;
75189;SDS011;69198;44.694;37.790;2023-08-01T03:31:29;10.18;;;5.32;;
75189;SDS011;69198;44.694;37.790;2023-08-01T03:32:30;9.88;;;5.22;;
75189;SDS011;69198;44.694;37.790;2023-08-01T03:33:32;8.13;;;4.88;;
75189;SDS011;69198;44.694;37.790;2023-08-01T03:34:34;10.55;;;5.57;;
75189;SDS011;69198;44.694;37.790;2023-08-01T03:35:35;8.93;;;5.07;;
75189;SDS011;69198;44.694;37.790;2023-08-01T03:36:36;9.57;;;4.70;;
75189;SDS011;69198;44.694;37.790;2023-08-01T03:37:37;9.13;;;4.63;;
75189;SDS011;69198;44.694;37.790;2023-08-01T03:38:39;9.30;;;4.93;;
75189;SDS011;69198;44.694;37.790;2023-08-01T03:39:40;9.85;;;4.90;;
75189;SDS011;69198;44.694;37.790;2023-08-01T03:40:41;8.82;;;4.72;;
75189;SDS011;69198;44.694;37.790;2023-08-01T03:41:42;7.88;;;4.45;;
75189;SDS011;69198;44.694;37.790;2023-08-01T03:42:43;8.45;;;4.60;;
75189;SDS011;69198;44.694;37.790;2023-08-01T03:43:45;10.27;;;4.40;;
75189;SDS011;69198;44.694;37.790;2023-08-01T03:44:46;8.43;;;4.53;;
75189;SDS011;69198;44.694;37.790;2023-08-01T03:45:47;9.65;;;4.82;;
75189;SDS011;69198;44.694;37.790;2023-08-01T03:46:48;8.82;;;4.80;;
75189;SDS011;69198;44.694;37.790;2023-08-01T03:47:49;9.27;;;4.70;;
75189;SDS011;69198;44.694;37.790;2023-08-01T03:48:51;9.13;;;4.47;;
75189;SDS011;69198;44.694;37.790;2023-08-01T03:49:52;9.40;;;4.63;;
75189;SDS011;69198;44.694;37.790;2023-08-01T03:50:53;8.48;;;4.70;;
75189;SDS011;69198;44.694;37.790;2023-08-01T03:51:54;8.73;;;5.20;;
75189;SDS011;69198;44.694;37.790;2023-08-01T03:52:55;10.60;;;4.60;;
75189;SDS011;69198;44.694;37.790;2023-08-01T03:53:56;9.45;;;4.88;;
75189;SDS011;69198;44.694;37.790;2023-08-01T03:54:58;9.80;;;4.93;;
75189;SDS011;69198;44.694;37.790;2023-08-01T03:56:02;7.95;;;4.35;;
75189;SDS011;69198;44.694;37.790;2023-08-01T03:57:03;8.85;;;4.50;;
75189;SDS011;69198;44.694;37.790;2023-08-01T03:58:04;8.75;;;4.35;;
75189;SDS011;69198;44.694;37.790;2023-08-01T03:59:06;10.98;;;4.50;;
75189;SDS011;69198;44.694;37.790;2023-08-01T04:00:07;8.18;;;4.20;;
75189;SDS011;69198;44.694;37.790;2023-08-01T04:01:13;9.37;;;4.80;;
75189;SDS011;69198;44.694;37.790;2023-08-01T04:02:15;8.20;;;4.45;;
75189;SDS011;69198;44.694;37.790;2023-08-01T04:03:15;8.70;;;4.20;;
75189;SDS011;69198;44.694;37.790;2023-08-01T04:04:18;8.15;;;4.25;;
75189;SDS011;69198;44.694;37.790;2023-08-01T04:05:20;9.05;;;3.90;;
75189;SDS011;69198;44.694;37.790;2023-08-01T04:06:21;7.10;;;3.53;;
75189;SDS011;69198;44.694;37.790;2023-08-01T04:07:23;7.82;;;3.58;;
75189;SDS011;69198;44.694;37.790;2023-08-01T04:08:24;6.82;;;3.58;;
75189;SDS011;69198;44.694;37.790;2023-08-01T04:09:25;8.73;;;3.38;;
75189;SDS011;69198;44.694;37.790;2023-08-01T04:10:26;7.73;;;3.37;;
75189;SDS011;69198;44.694;37.790;2023-08-01T04:11:27;8.45;;;3.63;;
75189;SDS011;69198;44.694;37.790;2023-08-01T04:12:33;7.63;;;3.55;;
75189;SDS011;69198;44.694;37.790;2023-08-01T04:13:34;6.95;;;3.40;;
75189;SDS011;69198;44.694;37.790;2023-08-01T04:14:36;8.65;;;3.25;;
75189;SDS011;69198;44.694;37.790;2023-08-01T04:15:37;7.20;;;3.40;;
75189;SDS011;69198;44.694;37.790;2023-08-01T04:16:38;6.65;;;3.40;;
75189;SDS011;69198;44.694;37.790;2023-08-01T04:17:39;9.00;;;3.45;;
75189;SDS011;69198;44.694;37.790;2023-08-01T04:18:40;8.82;;;3.22;;
75189;SDS011;69198;44.694;37.790;2023-08-01T04:19:41;8.27;;;3.47;;
75189;SDS011;69198;44.694;37.790;2023-08-01T04:20:42;6.70;;;3.30;;
75189;SDS011;69198;44.694;37.790;2023-08-01T04:21:43;8.68;;;3.53;;
75189;SDS011;69198;44.694;37.790;2023-08-01T04:22:44;6.50;;;3.47;;
75189;SDS011;69198;44.694;37.790;2023-08-01T04:23:45;7.15;;;3.40;;
75189;SDS011;69198;44.694;37.790;2023-08-01T04:24:46;8.35;;;4.20;;
75189;SDS011;69198;44.694;37.790;2023-08-01T04:25:47;8.77;;;3.90;;
75189;SDS011;69198;44.694;37.790;2023-08-01T04:26:48;7.43;;;3.70;;
75189;SDS011;69198;44.694;37.790;2023-08-01T04:27:49;7.18;;;3.70;;
75189;SDS011;69198;44.694;37.790;2023-08-01T04:28:50;8.30;;;3.80;;
75189;SDS011;69198;44.694;37.790;2023-08-01T04:29:51;7.68;;;3.38;;
75189;SDS011;69198;44.694;37.790;2023-08-01T04:30:52;8.27;;;3.88;;
75189;SDS011;69198;44.694;37.790;2023-08-01T04:31:53;9.23;;;4.30;;
75189;SDS011;69198;44.694;37.790;2023-08-01T04:32:54;7.50;;;3.65;;
75189;SDS011;69198;44.694;37.790;2023-08-01T04:33:55;8.60;;;3.73;;
75189;SDS011;69198;44.694;37.790;2023-08-01T04:34:56;7.55;;;3.47;;
75189;SDS011;69198;44.694;37.790;2023-08-01T04:35:58;7.55;;;3.95;;
75189;SDS011;69198;44.694;37.790;2023-08-01T04:36:59;8.55;;;3.63;;
75189;SDS011;69198;44.694;37.790;2023-08-01T04:38:00;8.13;;;3.30;;
75189;SDS011;69198;44.694;37.790;2023-08-01T04:39:00;6.93;;;3.15;;
75189;SDS011;69198;44.694;37.790;2023-08-01T04:40:02;7.55;;;3.05;;
75189;SDS011;69198;44.694;37.790;2023-08-01T04:41:04;6.20;;;3.00;;
75189;SDS011;69198;44.694;37.790;2023-08-01T04:42:05;7.75;;;3.33;;
75189;SDS011;69198;44.694;37.790;2023-08-01T04:43:06;6.70;;;3.30;;
75189;SDS011;69198;44.694;37.790;2023-08-01T04:44:07;8.20;;;3.10;;
75189;SDS011;69198;44.694;37.790;2023-08-01T04:45:08;6.28;;;2.80;;
75189;SDS011;69198;44.694;37.790;2023-08-01T04:46:09;7.43;;;3.00;;
75189;SDS011;69198;44.694;37.790;2023-08-01T04:47:10;7.20;;;3.08;;
75189;SDS011;69198;44.694;37.790;2023-08-01T04:48:11;6.75;;;3.00;;
75189;SDS011;69198;44.694;37.790;2023-08-01T04:49:12;7.20;;;2.73;;
75189;SDS011;69198;44.694;37.790;2023-08-01T04:50:13;6.15;;;3.00;;
75189;SDS011;69198;44.694;37.790;2023-08-01T04:51:14;5.93;;;2.67;;
75189;SDS011;69198;44.694;37.790;2023-08-01T04:52:15;7.18;;;2.60;;
75189;SDS011;69198;44.694;37.790;2023-08-01T04:53:16;5.95;;;2.42;;
75189;SDS011;69198;44.694;37.790;2023-08-01T04:54:17;5.45;;;2.50;;
75189;SDS011;69198;44.694;37.790;2023-08-01T04:55:18;7.82;;;2.55;;
75189;SDS011;69198;44.694;37.790;2023-08-01T04:56:19;5.30;;;2.53;;
75189;SDS011;69198;44.694;37.790;2023-08-01T04:57:20;6.13;;;2.33;;
75189;SDS011;69198;44.694;37.790;2023-08-01T04:58:21;6.05;;;2.42;;
75189;SDS011;69198;44.694;37.790;2023-08-01T04:59:22;6.63;;;2.63;;
75189;SDS011;69198;44.694;37.790;2023-08-01T05:00:23;5.40;;;2.30;;
75189;SDS011;69198;44.694;37.790;2023-08-01T05:01:24;5.90;;;2.35;;
75189;SDS011;69198;44.694;37.790;2023-08-01T05:02:25;6.68;;;2.40;;
75189;SDS011;69198;44.694;37.790;2023-08-01T05:03:26;5.00;;;2.20;;
75189;SDS011;69198;44.694;37.790;2023-08-01T05:04:27;6.03;;;2.30;;
75189;SDS011;69198;44.694;37.790;2023-08-01T05:05:28;6.35;;;2.20;;
75189;SDS011;69198;44.694;37.790;2023-08-01T05:06:29;6.53;;;2.60;;
75189;SDS011;69198;44.694;37.790;2023-08-01T05:07:30;6.00;;;2.70;;
75189;SDS011;69198;44.694;37.790;2023-08-01T05:08:31;6.50;;;2.67;;
75189;SDS011;69198;44.694;37.790;2023-08-01T05:09:32;5.53;;;2.22;;
75189;SDS011;69198;44.694;37.790;2023-08-01T05:10:33;6.18;;;2.78;;
75189;SDS011;69198;44.694;37.790;2023-08-01T05:11:34;6.38;;;2.47;;
75189;SDS011;69198;44.694;37.790;2023-08-01T05:12:35;5.70;;;2.43;;
75189;SDS011;69198;44.694;37.790;2023-08-01T05:13:36;7.25;;;2.67;;
75189;SDS011;69198;44.694;37.790;2023-08-01T05:14:37;5.90;;;2.05;;
75189;SDS011;69198;44.694;37.790;2023-08-01T05:15:38;5.03;;;2.08;;
75189;SDS011;69198;44.694;37.790;2023-08-01T05:16:39;6.53;;;2.20;;
75189;SDS011;69198;44.694;37.790;2023-08-01T05:17:40;6.60;;;2.40;;
75189;SDS011;69198;44.694;37.790;2023-08-01T05:18:41;5.20;;;2.10;;
75189;SDS011;69198;44.694;37.790;2023-08-01T05:19:42;5.35;;;2.25;;
75189;SDS011;69198;44.694;37.790;2023-08-01T05:20:43;5.88;;;2.30;;
75189;SDS011;69198;44.694;37.790;2023-08-01T05:21:44;5.72;;;2.20;;
75189;SDS011;69198;44.694;37.790;2023-08-01T05:22:46;6.20;;;2.55;;
75189;SDS011;69198;44.694;37.790;2023-08-01T05:23:47;5.35;;;2.50;;
75189;SDS011;69198;44.694;37.790;2023-08-01T05:24:48;7.22;;;2.50;;
75189;SDS011;69198;44.694;37.790;2023-08-01T05:25:49;7.18;;;2.40;;
75189;SDS011;69198;44.694;37.790;2023-08-01T05:26:50;5.20;;;2.33;;
75189;SDS011;69198;44.694;37.790;2023-08-01T05:27:51;7.68;;;2.50;;
75189;SDS011;69198;44.694;37.790;2023-08-01T05:28:52;5.00;;;1.90;;
75189;SDS011;69198;44.694;37.790;2023-08-01T05:29:53;10.65;;;2.22;;
75189;SDS011;69198;44.694;37.790;2023-08-01T05:30:54;4.80;;;1.85;;
75189;SDS011;69198;44.694;37.790;2023-08-01T05:31:55;4.63;;;1.73;;
75189;SDS011;69198;44.694;37.790;2023-08-01T05:32:56;5.53;;;2.22;;
75189;SDS011;69198;44.694;37.790;2023-08-01T05:33:57;5.32;;;1.83;;
75189;SDS011;69198;44.694;37.790;2023-08-01T05:34:58;5.88;;;1.80;;
75189;SDS011;69198;44.694;37.790;2023-08-01T05:35:59;5.65;;;2.05;;
75189;SDS011;69198;44.694;37.790;2023-08-01T05:37:00;5.70;;;1.80;;
75189;SDS011;69198;44.694;37.790;2023-08-01T05:38:01;5.90;;;2.20;;
75189;SDS011;69198;44.694;37.790;2023-08-01T05:39:02;5.53;;;1.73;;
75189;SDS011;69198;44.694;37.790;2023-08-01T05:40:04;5.20;;;1.85;;
75189;SDS011;69198;44.694;37.790;2023-08-01T05:41:05;5.93;;;1.80;;
75189;SDS011;69198;44.694;37.790;2023-08-01T05:42:06;5.18;;;1.98;;
75189;SDS011;69198;44.694;37.790;2023-08-01T05:43:09;5.38;;;2.10;;
75189;SDS011;69198;44.694;37.790;2023-08-01T05:44:10;4.47;;;1.60;;
75189;SDS011;69198;44.694;37.790;2023-08-01T05:45:11;5.22;;;1.95;;
75189;SDS011;69198;44.694;37.790;2023-08-01T05:46:12;6.13;;;1.83;;
75189;SDS011;69198;44.694;37.790;2023-08-01T05:47:13;4.60;;;1.57;;
75189;SDS011;69198;44.694;37.790;2023-08-01T05:48:14;5.60;;;2.10;;
75189;SDS011;69198;44.694;37.790;2023-08-01T05:49:15;4.45;;;1.55;;
75189;SDS011;69198;44.694;37.790;2023-08-01T05:50:15;4.60;;;1.70;;
75189;SDS011;69198;44.694;37.790;2023-08-01T05:51:16;6.10;;;1.80;;
75189;SDS011;69198;44.694;37.790;2023-08-01T05:52:17;5.60;;;1.60;;
75189;SDS011;69198;44.694;37.790;2023-08-01T05:53:18;5.20;;;1.95;;
75189;SDS011;69198;44.694;37.790;2023-08-01T05:54:19;6.20;;;2.05;;
75189;SDS011;69198;44.694;37.790;2023-08-01T05:55:20;6.30;;;1.73;;
75189;SDS011;69198;44.694;37.790;2023-08-01T05:56:21;5.97;;;1.60;;
75189;SDS011;69198;44.694;37.790;2023-08-01T05:57:22;4.90;;;1.42;;
75189;SDS011;69198;44.694;37.790;2023-08-01T05:58:23;5.57;;;1.58;;
75189;SDS011;69198;44.694;37.790;2023-08-01T05:59:24;6.25;;;1.70;;
75189;SDS011;69198;44.694;37.790;2023-08-01T06:00:26;7.03;;;1.98;;
75189;SDS011;69198;44.694;37.790;2023-08-01T06:01:27;5.45;;;1.80;;
75189;SDS011;69198;44.694;37.790;2023-08-01T06:02:28;6.50;;;2.15;;